sensor_id;sensor_type;location;lat;lon;timestamp;P1;durP1;ratioP1;P2;durP2;ratioP2
70216;SDS011;65567;55.684;37.570;2023-02-26T00:00:02;15.40;;;9.10;;
70216;SDS011;65567;55.684;37.570;2023-02-26T00:02:32;23.90;;;11.20;;
70216;SDS011;65567;55.684;37.570;2023-02-26T00:04:58;26.90;;;13.00;;
70216;SDS011;65567;55.684;37.570;2023-02-26T00:07:24;20.08;;;9.80;;
70216;SDS011;65567;55.684;37.570;2023-02-26T00:09:53;18.02;;;10.00;;
70216;SDS011;65567;55.684;37.570;2023-02-26T00:12:20;15.05;;;9.20;;
70216;SDS011;65567;55.684;37.570;2023-02-26T00:14:46;19.70;;;11.65;;
70216;SDS011;65567;55.684;37.570;2023-02-26T00:17:47;21.60;;;13.90;;
70216;SDS011;65567;55.684;37.570;2023-02-26T00:20:08;28.25;;;15.27;;
70216;SDS011;65567;55.684;37.570;2023-02-26T00:22:41;21.27;;;12.15;;
70216;SDS011;65567;55.684;37.570;2023-02-26T00:25:07;21.88;;;10.75;;
70216;SDS011;65567;55.684;37.570;2023-02-26T00:27:34;19.58;;;9.00;;
70216;SDS011;65567;55.684;37.570;2023-02-26T00:30:02;14.15;;;7.00;;
70216;SDS011;65567;55.684;37.570;2023-02-26T00:32:30;9.55;;;5.85;;
70216;SDS011;65567;55.684;37.570;2023-02-26T00:34:57;20.10;;;10.30;;
70216;SDS011;65567;55.684;37.570;2023-02-26T00:40:02;11.48;;;6.30;;
70216;SDS011;65567;55.684;37.570;2023-02-26T00:42:47;13.27;;;7.85;;
70216;SDS011;65567;55.684;37.570;2023-02-26T00:45:14;11.75;;;6.75;;
70216;SDS011;65567;55.684;37.570;2023-02-26T00:47:48;17.50;;;9.35;;
70216;SDS011;65567;55.684;37.570;2023-02-26T00:50:21;8.30;;;4.53;;
70216;SDS011;65567;55.684;37.570;2023-02-26T00:55:41;20.35;;;10.25;;
70216;SDS011;65567;55.684;37.570;2023-02-26T00:58:07;9.88;;;6.15;;
70216;SDS011;65567;55.684;37.570;2023-02-26T01:00:33;17.27;;;7.95;;
70216;SDS011;65567;55.684;37.570;2023-02-26T01:03:00;9.52;;;4.18;;
70216;SDS011;65567;55.684;37.570;2023-02-26T01:05:26;14.60;;;7.72;;
70216;SDS011;65567;55.684;37.570;2023-02-26T01:10:44;13.30;;;6.82;;
70216;SDS011;65567;55.684;37.570;2023-02-26T01:13:10;10.13;;;5.78;;
70216;SDS011;65567;55.684;37.570;2023-02-26T01:15:37;8.20;;;4.70;;
70216;SDS011;65567;55.684;37.570;2023-02-26T01:19:04;11.60;;;4.85;;
70216;SDS011;65567;55.684;37.570;2023-02-26T01:21:07;5.78;;;3.75;;
70216;SDS011;65567;55.684;37.570;2023-02-26T01:23:40;13.13;;;6.57;;
70216;SDS011;65567;55.684;37.570;2023-02-26T01:26:21;8.00;;;4.72;;
70216;SDS011;65567;55.684;37.570;2023-02-26T01:28:48;9.43;;;5.13;;
70216;SDS011;65567;55.684;37.570;2023-02-26T01:31:41;8.40;;;4.38;;
70216;SDS011;65567;55.684;37.570;2023-02-26T01:34:21;10.55;;;5.72;;
70216;SDS011;65567;55.684;37.570;2023-02-26T01:37:20;6.47;;;3.35;;
70216;SDS011;65567;55.684;37.570;2023-02-26T01:39:53;5.30;;;2.83;;
70216;SDS011;65567;55.684;37.570;2023-02-26T01:42:48;3.97;;;2.00;;
70216;SDS011;65567;55.684;37.570;2023-02-26T01:45:23;4.18;;;2.45;;
70216;SDS011;65567;55.684;37.570;2023-02-26T01:48:04;5.50;;;3.40;;
70216;SDS011;65567;55.684;37.570;2023-02-26T01:50:36;3.88;;;1.98;;
70216;SDS011;65567;55.684;37.570;2023-02-26T01:53:16;8.52;;;3.97;;
70216;SDS011;65567;55.684;37.570;2023-02-26T01:55:55;8.05;;;4.03;;
70216;SDS011;65567;55.684;37.570;2023-02-26T01:58:23;6.68;;;3.70;;
70216;SDS011;65567;55.684;37.570;2023-02-26T02:00:51;6.80;;;3.58;;
70216;SDS011;65567;55.684;37.570;2023-02-26T02:03:18;5.97;;;3.45;;
70216;SDS011;65567;55.684;37.570;2023-02-26T02:05:53;7.10;;;4.60;;
70216;SDS011;65567;55.684;37.570;2023-02-26T02:08:22;10.15;;;5.10;;
70216;SDS011;65567;55.684;37.570;2023-02-26T02:10:49;8.90;;;5.13;;
70216;SDS011;65567;55.684;37.570;2023-02-26T02:16:16;8.93;;;4.30;;
70216;SDS011;65567;55.684;37.570;2023-02-26T02:18:55;6.88;;;4.00;;
70216;SDS011;65567;55.684;37.570;2023-02-26T02:21:33;11.30;;;6.22;;
70216;SDS011;65567;55.684;37.570;2023-02-26T02:24:53;9.30;;;6.25;;
70216;SDS011;65567;55.684;37.570;2023-02-26T02:30:23;11.00;;;6.85;;
70216;SDS011;65567;55.684;37.570;2023-02-26T02:33:01;7.90;;;5.18;;
70216;SDS011;65567;55.684;37.570;2023-02-26T02:35:37;9.45;;;4.85;;
70216;SDS011;65567;55.684;37.570;2023-02-26T02:38:16;3.92;;;2.53;;
70216;SDS011;65567;55.684;37.570;2023-02-26T02:40:45;13.35;;;5.88;;
70216;SDS011;65567;55.684;37.570;2023-02-26T02:43:16;11.88;;;6.60;;
70216;SDS011;65567;55.684;37.570;2023-02-26T02:45:51;6.65;;;3.60;;
70216;SDS011;65567;55.684;37.570;2023-02-26T02:48:27;4.57;;;2.55;;
70216;SDS011;65567;55.684;37.570;2023-02-26T02:50:58;10.50;;;4.65;;
70216;SDS011;65567;55.684;37.570;2023-02-26T02:59:17;6.10;;;3.30;;
70216;SDS011;65567;55.684;37.570;2023-02-26T03:01:49;7.25;;;3.67;;
70216;SDS011;65567;55.684;37.570;2023-02-26T03:04:31;6.72;;;3.75;;
70216;SDS011;65567;55.684;37.570;2023-02-26T03:06:57;5.63;;;2.35;;
70216;SDS011;65567;55.684;37.570;2023-02-26T03:09:23;7.03;;;3.83;;
70216;SDS011;65567;55.684;37.570;2023-02-26T03:11:49;5.68;;;3.30;;
70216;SDS011;65567;55.684;37.570;2023-02-26T03:14:15;4.22;;;2.63;;
70216;SDS011;65567;55.684;37.570;2023-02-26T03:16:55;4.55;;;2.28;;
70216;SDS011;65567;55.684;37.570;2023-02-26T03:22:50;5.88;;;2.97;;
70216;SDS011;65567;55.684;37.570;2023-02-26T03:25:28;3.17;;;1.90;;
70216;SDS011;65567;55.684;37.570;2023-02-26T03:30:37;3.28;;;1.60;;
70216;SDS011;65567;55.684;37.570;2023-02-26T03:34:14;6.78;;;3.97;;
70216;SDS011;65567;55.684;37.570;2023-02-26T03:39:21;5.53;;;2.53;;
70216;SDS011;65567;55.684;37.570;2023-02-26T03:42:35;3.50;;;2.22;;
70216;SDS011;65567;55.684;37.570;2023-02-26T03:44:49;6.43;;;3.63;;
70216;SDS011;65567;55.684;37.570;2023-02-26T03:47:17;6.30;;;3.83;;
70216;SDS011;65567;55.684;37.570;2023-02-26T03:49:45;5.20;;;2.40;;
70216;SDS011;65567;55.684;37.570;2023-02-26T03:52:15;3.85;;;2.88;;
70216;SDS011;65567;55.684;37.570;2023-02-26T03:54:42;5.70;;;2.80;;
70216;SDS011;65567;55.684;37.570;2023-02-26T03:57:13;3.10;;;2.15;;
70216;SDS011;65567;55.684;37.570;2023-02-26T03:59:39;3.70;;;2.28;;
70216;SDS011;65567;55.684;37.570;2023-02-26T04:02:15;4.43;;;2.25;;
70216;SDS011;65567;55.684;37.570;2023-02-26T04:07:49;5.55;;;2.08;;
70216;SDS011;65567;55.684;37.570;2023-02-26T04:10:17;5.60;;;3.35;;
70216;SDS011;65567;55.684;37.570;2023-02-26T04:12:46;3.13;;;2.17;;
70216;SDS011;65567;55.684;37.570;2023-02-26T04:15:12;5.85;;;3.72;;
70216;SDS011;65567;55.684;37.570;2023-02-26T04:17:38;3.70;;;2.08;;
70216;SDS011;65567;55.684;37.570;2023-02-26T04:20:04;5.55;;;3.80;;
70216;SDS011;65567;55.684;37.570;2023-02-26T04:22:37;3.50;;;2.30;;
70216;SDS011;65567;55.684;37.570;2023-02-26T04:25:03;5.75;;;3.22;;
70216;SDS011;65567;55.684;37.570;2023-02-26T04:27:30;2.50;;;1.85;;
70216;SDS011;65567;55.684;37.570;2023-02-26T04:29:55;3.65;;;2.50;;
70216;SDS011;65567;55.684;37.570;2023-02-26T04:32:21;4.32;;;2.55;;
70216;SDS011;65567;55.684;37.570;2023-02-26T04:34:47;5.15;;;1.83;;
70216;SDS011;65567;55.684;37.570;2023-02-26T04:37:13;4.22;;;2.03;;
70216;SDS011;65567;55.684;37.570;2023-02-26T04:39:39;5.72;;;3.45;;
70216;SDS011;65567;55.684;37.570;2023-02-26T04:42:05;3.17;;;2.20;;
70216;SDS011;65567;55.684;37.570;2023-02-26T04:44:32;4.13;;;2.28;;
70216;SDS011;65567;55.684;37.570;2023-02-26T04:46:58;3.50;;;1.50;;
70216;SDS011;65567;55.684;37.570;2023-02-26T04:49:24;7.60;;;2.60;;
70216;SDS011;65567;55.684;37.570;2023-02-26T04:51:49;3.60;;;2.42;;
70216;SDS011;65567;55.684;37.570;2023-02-26T04:54:15;3.92;;;1.98;;
70216;SDS011;65567;55.684;37.570;2023-02-26T04:56:41;2.38;;;1.35;;
70216;SDS011;65567;55.684;37.570;2023-02-26T04:59:07;2.38;;;1.42;;
70216;SDS011;65567;55.684;37.570;2023-02-26T05:01:33;3.90;;;1.90;;
70216;SDS011;65567;55.684;37.570;2023-02-26T05:03:59;1.17;;;0.77;;
70216;SDS011;65567;55.684;37.570;2023-02-26T05:06:25;1.55;;;0.88;;
70216;SDS011;65567;55.684;37.570;2023-02-26T05:08:51;5.45;;;1.30;;
70216;SDS011;65567;55.684;37.570;2023-02-26T05:11:17;4.07;;;1.85;;
70216;SDS011;65567;55.684;37.570;2023-02-26T05:13:43;3.80;;;1.50;;
70216;SDS011;65567;55.684;37.570;2023-02-26T05:16:09;2.72;;;1.73;;
70216;SDS011;65567;55.684;37.570;2023-02-26T05:18:35;2.65;;;1.90;;
70216;SDS011;65567;55.684;37.570;2023-02-26T05:21:01;1.65;;;1.00;;
70216;SDS011;65567;55.684;37.570;2023-02-26T05:23:28;2.20;;;1.02;;
70216;SDS011;65567;55.684;37.570;2023-02-26T05:25:54;1.50;;;0.70;;
70216;SDS011;65567;55.684;37.570;2023-02-26T05:28:22;5.60;;;1.80;;
70216;SDS011;65567;55.684;37.570;2023-02-26T05:30:48;2.65;;;1.25;;
70216;SDS011;65567;55.684;37.570;2023-02-26T05:33:15;2.28;;;1.27;;
70216;SDS011;65567;55.684;37.570;2023-02-26T05:35:40;1.55;;;0.65;;
70216;SDS011;65567;55.684;37.570;2023-02-26T05:38:06;2.72;;;0.75;;
70216;SDS011;65567;55.684;37.570;2023-02-26T05:40:32;1.33;;;0.63;;
70216;SDS011;65567;55.684;37.570;2023-02-26T05:42:59;1.88;;;0.98;;
70216;SDS011;65567;55.684;37.570;2023-02-26T05:45:25;2.83;;;1.35;;
70216;SDS011;65567;55.684;37.570;2023-02-26T05:47:50;2.58;;;0.65;;
70216;SDS011;65567;55.684;37.570;2023-02-26T05:50:16;1.80;;;1.00;;
70216;SDS011;65567;55.684;37.570;2023-02-26T05:52:42;3.00;;;0.85;;
70216;SDS011;65567;55.684;37.570;2023-02-26T05:55:08;1.45;;;0.82;;
70216;SDS011;65567;55.684;37.570;2023-02-26T05:57:35;1.48;;;0.60;;
70216;SDS011;65567;55.684;37.570;2023-02-26T06:00:01;2.13;;;0.90;;
70216;SDS011;65567;55.684;37.570;2023-02-26T06:02:27;2.33;;;0.93;;
70216;SDS011;65567;55.684;37.570;2023-02-26T06:04:53;0.70;;;0.52;;
70216;SDS011;65567;55.684;37.570;2023-02-26T06:07:18;2.90;;;0.95;;
70216;SDS011;65567;55.684;37.570;2023-02-26T06:09:44;1.63;;;0.85;;
70216;SDS011;65567;55.684;37.570;2023-02-26T06:12:10;1.45;;;0.70;;
70216;SDS011;65567;55.684;37.570;2023-02-26T06:14:36;0.80;;;0.55;;
70216;SDS011;65567;55.684;37.570;2023-02-26T06:17:02;2.28;;;0.80;;
70216;SDS011;65567;55.684;37.570;2023-02-26T06:19:29;0.70;;;0.40;;
70216;SDS011;65567;55.684;37.570;2023-02-26T06:21:55;1.65;;;0.80;;
70216;SDS011;65567;55.684;37.570;2023-02-26T06:24:20;2.58;;;1.25;;
70216;SDS011;65567;55.684;37.570;2023-02-26T06:26:46;1.20;;;0.65;;
70216;SDS011;65567;55.684;37.570;2023-02-26T06:29:12;1.45;;;0.80;;
70216;SDS011;65567;55.684;37.570;2023-02-26T06:31:38;1.58;;;0.85;;
70216;SDS011;65567;55.684;37.570;2023-02-26T06:36:29;2.05;;;1.00;;
70216;SDS011;65567;55.684;37.570;2023-02-26T06:38:55;0.90;;;0.50;;
70216;SDS011;65567;55.684;37.570;2023-02-26T06:41:21;12.25;;;3.45;;
70216;SDS011;65567;55.684;37.570;2023-02-26T06:43:47;3.22;;;0.80;;
70216;SDS011;65567;55.684;37.570;2023-02-26T06:46:13;6.43;;;1.48;;
70216;SDS011;65567;55.684;37.570;2023-02-26T06:48:39;1.60;;;0.85;;
70216;SDS011;65567;55.684;37.570;2023-02-26T06:51:05;2.42;;;1.02;;
70216;SDS011;65567;55.684;37.570;2023-02-26T06:53:31;2.78;;;1.10;;
70216;SDS011;65567;55.684;37.570;2023-02-26T06:55:57;2.00;;;0.93;;
70216;SDS011;65567;55.684;37.570;2023-02-26T06:58:23;1.58;;;0.85;;
70216;SDS011;65567;55.684;37.570;2023-02-26T07:00:49;2.38;;;1.25;;
70216;SDS011;65567;55.684;37.570;2023-02-26T07:03:16;2.65;;;1.58;;
70216;SDS011;65567;55.684;37.570;2023-02-26T07:05:43;2.42;;;1.30;;
70216;SDS011;65567;55.684;37.570;2023-02-26T09:00:46;1.48;;;0.77;;
70216;SDS011;65567;55.684;37.570;2023-02-26T09:03:13;1.20;;;0.70;;
70216;SDS011;65567;55.684;37.570;2023-02-26T09:05:39;2.85;;;0.98;;
70216;SDS011;65567;55.684;37.570;2023-02-26T09:08:06;1.92;;;0.70;;
70216;SDS011;65567;55.684;37.570;2023-02-26T09:10:33;1.30;;;0.75;;
70216;SDS011;65567;55.684;37.570;2023-02-26T09:13:00;1.45;;;0.60;;
70216;SDS011;65567;55.684;37.570;2023-02-26T09:15:26;2.38;;;0.80;;
70216;SDS011;65567;55.684;37.570;2023-02-26T09:17:52;3.15;;;0.75;;
70216;SDS011;65567;55.684;37.570;2023-02-26T09:20:18;0.50;;;0.40;;
70216;SDS011;65567;55.684;37.570;2023-02-26T09:22:44;0.75;;;0.40;;
70216;SDS011;65567;55.684;37.570;2023-02-26T09:25:10;1.40;;;0.75;;
70216;SDS011;65567;55.684;37.570;2023-02-26T09:27:36;2.15;;;0.80;;
70216;SDS011;65567;55.684;37.570;2023-02-26T09:30:03;1.67;;;0.73;;
70216;SDS011;65567;55.684;37.570;2023-02-26T09:32:30;1.45;;;0.70;;
70216;SDS011;65567;55.684;37.570;2023-02-26T09:34:55;0.85;;;0.40;;
70216;SDS011;65567;55.684;37.570;2023-02-26T09:37:21;1.15;;;0.60;;
70216;SDS011;65567;55.684;37.570;2023-02-26T09:39:47;1.50;;;0.88;;
70216;SDS011;65567;55.684;37.570;2023-02-26T09:45:32;1.63;;;0.90;;
70216;SDS011;65567;55.684;37.570;2023-02-26T09:48:03;2.10;;;0.70;;
70216;SDS011;65567;55.684;37.570;2023-02-26T09:50:36;4.57;;;1.05;;
70216;SDS011;65567;55.684;37.570;2023-02-26T09:55:47;2.17;;;0.77;;
70216;SDS011;65567;55.684;37.570;2023-02-26T09:58:20;1.58;;;0.80;;
70216;SDS011;65567;55.684;37.570;2023-02-26T10:04:11;1.55;;;0.95;;
70216;SDS011;65567;55.684;37.570;2023-02-26T10:06:31;2.40;;;0.88;;
70216;SDS011;65567;55.684;37.570;2023-02-26T10:09:23;1.75;;;0.90;;
70216;SDS011;65567;55.684;37.570;2023-02-26T10:14:30;0.90;;;0.65;;
70216;SDS011;65567;55.684;37.570;2023-02-26T10:16:59;5.80;;;0.98;;
70216;SDS011;65567;55.684;37.570;2023-02-26T10:19:32;1.33;;;0.70;;
70216;SDS011;65567;55.684;37.570;2023-02-26T10:22:14;2.08;;;0.93;;
70216;SDS011;65567;55.684;37.570;2023-02-26T10:24:48;1.92;;;1.10;;
70216;SDS011;65567;55.684;37.570;2023-02-26T10:30:19;1.85;;;0.95;;
70216;SDS011;65567;55.684;37.570;2023-02-26T10:32:58;2.17;;;0.82;;
70216;SDS011;65567;55.684;37.570;2023-02-26T10:35:30;1.45;;;0.93;;
70216;SDS011;65567;55.684;37.570;2023-02-26T10:38:04;1.40;;;1.00;;
70216;SDS011;65567;55.684;37.570;2023-02-26T10:46:34;2.60;;;1.20;;
70216;SDS011;65567;55.684;37.570;2023-02-26T10:53:58;1.10;;;0.57;;
70216;SDS011;65567;55.684;37.570;2023-02-26T10:56:37;1.02;;;0.55;;
70216;SDS011;65567;55.684;37.570;2023-02-26T10:59:03;2.22;;;0.77;;
70216;SDS011;65567;55.684;37.570;2023-02-26T11:01:30;3.05;;;1.05;;
70216;SDS011;65567;55.684;37.570;2023-02-26T11:03:58;3.97;;;1.17;;
70216;SDS011;65567;55.684;37.570;2023-02-26T11:06:29;2.15;;;1.00;;
70216;SDS011;65567;55.684;37.570;2023-02-26T11:09:00;3.42;;;1.23;;
70216;SDS011;65567;55.684;37.570;2023-02-26T11:11:34;2.40;;;1.10;;
70216;SDS011;65567;55.684;37.570;2023-02-26T11:14:01;1.63;;;0.80;;
70216;SDS011;65567;55.684;37.570;2023-02-26T11:16:27;2.70;;;1.05;;
70216;SDS011;65567;55.684;37.570;2023-02-26T11:18:54;2.15;;;0.65;;
70216;SDS011;65567;55.684;37.570;2023-02-26T11:21:36;3.33;;;0.70;;
70216;SDS011;65567;55.684;37.570;2023-02-26T11:24:12;1.75;;;1.02;;
70216;SDS011;65567;55.684;37.570;2023-02-26T11:26:41;2.25;;;0.80;;
70216;SDS011;65567;55.684;37.570;2023-02-26T11:29:16;1.02;;;0.63;;
70216;SDS011;65567;55.684;37.570;2023-02-26T11:31:49;2.40;;;0.90;;
70216;SDS011;65567;55.684;37.570;2023-02-26T11:34:17;3.45;;;1.50;;
70216;SDS011;65567;55.684;37.570;2023-02-26T11:36:48;1.08;;;0.70;;
70216;SDS011;65567;55.684;37.570;2023-02-26T11:39:25;2.20;;;0.93;;
70216;SDS011;65567;55.684;37.570;2023-02-26T11:41:55;3.80;;;1.15;;
70216;SDS011;65567;55.684;37.570;2023-02-26T11:44:31;4.13;;;1.40;;
70216;SDS011;65567;55.684;37.570;2023-02-26T11:47:11;2.42;;;1.23;;
70216;SDS011;65567;55.684;37.570;2023-02-26T11:49:44;2.90;;;0.85;;
70216;SDS011;65567;55.684;37.570;2023-02-26T11:52:20;2.50;;;1.30;;
70216;SDS011;65567;55.684;37.570;2023-02-26T11:54:53;1.90;;;1.02;;
70216;SDS011;65567;55.684;37.570;2023-02-26T11:57:25;2.97;;;1.40;;
70216;SDS011;65567;55.684;37.570;2023-02-26T11:59:53;2.25;;;1.23;;
70216;SDS011;65567;55.684;37.570;2023-02-26T12:02:23;1.80;;;1.02;;
70216;SDS011;65567;55.684;37.570;2023-02-26T12:04:53;2.17;;;1.05;;
70216;SDS011;65567;55.684;37.570;2023-02-26T12:07:25;4.97;;;1.83;;
70216;SDS011;65567;55.684;37.570;2023-02-26T12:09:51;1.05;;;0.70;;
70216;SDS011;65567;55.684;37.570;2023-02-26T12:12:21;2.03;;;1.23;;
70216;SDS011;65567;55.684;37.570;2023-02-26T12:15:17;0.80;;;0.57;;
70216;SDS011;65567;55.684;37.570;2023-02-26T12:20:28;6.47;;;1.25;;
70216;SDS011;65567;55.684;37.570;2023-02-26T12:31:39;1.55;;;1.00;;
70216;SDS011;65567;55.684;37.570;2023-02-26T12:45:44;4.63;;;1.95;;
70216;SDS011;65567;55.684;37.570;2023-02-26T12:53:41;5.35;;;2.58;;
70216;SDS011;65567;55.684;37.570;2023-02-26T13:02:03;2.97;;;1.70;;
70216;SDS011;65567;55.684;37.570;2023-02-26T13:05:06;3.35;;;2.05;;
70216;SDS011;65567;55.684;37.570;2023-02-26T13:10:23;4.20;;;2.30;;
70216;SDS011;65567;55.684;37.570;2023-02-26T13:21:15;3.00;;;1.88;;
70216;SDS011;65567;55.684;37.570;2023-02-26T13:23:58;2.13;;;1.17;;
70216;SDS011;65567;55.684;37.570;2023-02-26T13:26:29;4.53;;;2.35;;
70216;SDS011;65567;55.684;37.570;2023-02-26T13:51:39;3.53;;;2.85;;
70216;SDS011;65567;55.684;37.570;2023-02-26T13:56:44;6.47;;;3.28;;
70216;SDS011;65567;55.684;37.570;2023-02-26T14:09:55;5.00;;;3.17;;
70216;SDS011;65567;55.684;37.570;2023-02-26T14:12:35;6.25;;;3.50;;
70216;SDS011;65567;55.684;37.570;2023-02-26T14:17:38;7.35;;;4.32;;
70216;SDS011;65567;55.684;37.570;2023-02-26T14:20:20;6.70;;;3.63;;
70216;SDS011;65567;55.684;37.570;2023-02-26T14:25:37;6.45;;;4.40;;
70216;SDS011;65567;55.684;37.570;2023-02-26T14:30:57;8.55;;;3.35;;
70216;SDS011;65567;55.684;37.570;2023-02-26T14:33:30;9.13;;;5.47;;
70216;SDS011;65567;55.684;37.570;2023-02-26T14:36:03;8.57;;;4.88;;
70216;SDS011;65567;55.684;37.570;2023-02-26T14:38:34;8.73;;;5.25;;
70216;SDS011;65567;55.684;37.570;2023-02-26T14:41:06;8.00;;;4.18;;
70216;SDS011;65567;55.684;37.570;2023-02-26T14:43:43;7.55;;;4.68;;
70216;SDS011;65567;55.684;37.570;2023-02-26T14:46:17;7.22;;;4.60;;
70216;SDS011;65567;55.684;37.570;2023-02-26T14:48:44;9.70;;;5.00;;
70216;SDS011;65567;55.684;37.570;2023-02-26T14:54:17;6.95;;;4.43;;
70216;SDS011;65567;55.684;37.570;2023-02-26T15:00:11;7.88;;;4.55;;
70216;SDS011;65567;55.684;37.570;2023-02-26T15:05:40;6.78;;;4.65;;
70216;SDS011;65567;55.684;37.570;2023-02-26T15:08:32;7.75;;;5.32;;
70216;SDS011;65567;55.684;37.570;2023-02-26T15:16:49;7.38;;;4.18;;
70216;SDS011;65567;55.684;37.570;2023-02-26T15:22:27;10.18;;;5.15;;
70216;SDS011;65567;55.684;37.570;2023-02-26T15:25:04;7.90;;;5.25;;
70216;SDS011;65567;55.684;37.570;2023-02-26T15:27:39;7.60;;;4.55;;
70216;SDS011;65567;55.684;37.570;2023-02-26T15:30:05;4.22;;;2.67;;
70216;SDS011;65567;55.684;37.570;2023-02-26T15:32:35;8.18;;;4.93;;
70216;SDS011;65567;55.684;37.570;2023-02-26T15:35:05;9.15;;;5.20;;
70216;SDS011;65567;55.684;37.570;2023-02-26T15:37:48;6.18;;;3.75;;
70216;SDS011;65567;55.684;37.570;2023-02-26T15:40:17;9.00;;;4.35;;
70216;SDS011;65567;55.684;37.570;2023-02-26T15:42:44;6.07;;;3.40;;
70216;SDS011;65567;55.684;37.570;2023-02-26T15:45:21;12.70;;;5.80;;
70216;SDS011;65567;55.684;37.570;2023-02-26T15:47:56;10.13;;;5.88;;
70216;SDS011;65567;55.684;37.570;2023-02-26T15:50:27;6.55;;;2.88;;
70216;SDS011;65567;55.684;37.570;2023-02-26T15:53:00;4.93;;;3.38;;
70216;SDS011;65567;55.684;37.570;2023-02-26T15:55:38;9.55;;;5.65;;
70216;SDS011;65567;55.684;37.570;2023-02-26T15:58:11;7.32;;;4.72;;
70216;SDS011;65567;55.684;37.570;2023-02-26T16:00:50;5.35;;;3.33;;
70216;SDS011;65567;55.684;37.570;2023-02-26T16:03:24;9.07;;;5.50;;
70216;SDS011;65567;55.684;37.570;2023-02-26T16:05:56;7.68;;;4.43;;
70216;SDS011;65567;55.684;37.570;2023-02-26T16:08:23;9.68;;;5.78;;
70216;SDS011;65567;55.684;37.570;2023-02-26T16:10:50;8.80;;;5.40;;
70216;SDS011;65567;55.684;37.570;2023-02-26T16:13:21;9.38;;;5.57;;
70216;SDS011;65567;55.684;37.570;2023-02-26T16:15:59;7.88;;;4.70;;
70216;SDS011;65567;55.684;37.570;2023-02-26T16:18:29;6.95;;;4.53;;
70216;SDS011;65567;55.684;37.570;2023-02-26T16:20:57;8.82;;;4.90;;
70216;SDS011;65567;55.684;37.570;2023-02-26T16:23:48;4.80;;;2.85;;
70216;SDS011;65567;55.684;37.570;2023-02-26T16:28:59;8.30;;;4.13;;
70216;SDS011;65567;55.684;37.570;2023-02-26T16:31:29;8.45;;;5.32;;
70216;SDS011;65567;55.684;37.570;2023-02-26T16:34:01;9.95;;;4.45;;
70216;SDS011;65567;55.684;37.570;2023-02-26T16:36:39;11.05;;;6.72;;
70216;SDS011;65567;55.684;37.570;2023-02-26T16:41:36;8.45;;;5.38;;
70216;SDS011;65567;55.684;37.570;2023-02-26T16:46:57;9.50;;;5.70;;
70216;SDS011;65567;55.684;37.570;2023-02-26T16:49:26;9.50;;;5.53;;
70216;SDS011;65567;55.684;37.570;2023-02-26T16:51:56;5.05;;;3.42;;
70216;SDS011;65567;55.684;37.570;2023-02-26T16:57:26;6.95;;;4.25;;
70216;SDS011;65567;55.684;37.570;2023-02-26T16:59:51;5.93;;;3.53;;
70216;SDS011;65567;55.684;37.570;2023-02-26T17:02:20;8.88;;;5.47;;
70216;SDS011;65567;55.684;37.570;2023-02-26T17:07:31;7.03;;;3.67;;
70216;SDS011;65567;55.684;37.570;2023-02-26T17:10:04;9.93;;;4.25;;
70216;SDS011;65567;55.684;37.570;2023-02-26T17:13:00;6.10;;;3.15;;
70216;SDS011;65567;55.684;37.570;2023-02-26T17:15:32;8.30;;;4.38;;
70216;SDS011;65567;55.684;37.570;2023-02-26T17:18:00;7.32;;;3.40;;
70216;SDS011;65567;55.684;37.570;2023-02-26T17:20:27;7.88;;;3.63;;
70216;SDS011;65567;55.684;37.570;2023-02-26T17:22:54;5.65;;;3.35;;
70216;SDS011;65567;55.684;37.570;2023-02-26T17:25:22;6.18;;;3.35;;
70216;SDS011;65567;55.684;37.570;2023-02-26T17:27:58;9.40;;;5.47;;
70216;SDS011;65567;55.684;37.570;2023-02-26T17:30:24;5.72;;;3.13;;
70216;SDS011;65567;55.684;37.570;2023-02-26T17:32:54;8.60;;;5.23;;
70216;SDS011;65567;55.684;37.570;2023-02-26T17:35:19;6.43;;;3.47;;
70216;SDS011;65567;55.684;37.570;2023-02-26T17:37:46;10.52;;;4.65;;
70216;SDS011;65567;55.684;37.570;2023-02-26T17:42:45;10.07;;;5.45;;
70216;SDS011;65567;55.684;37.570;2023-02-26T17:45:11;6.05;;;3.33;;
70216;SDS011;65567;55.684;37.570;2023-02-26T17:47:38;7.60;;;4.68;;
70216;SDS011;65567;55.684;37.570;2023-02-26T17:53:04;10.25;;;5.40;;
70216;SDS011;65567;55.684;37.570;2023-02-26T17:55:31;8.45;;;3.70;;
70216;SDS011;65567;55.684;37.570;2023-02-26T17:57:59;10.18;;;5.63;;
70216;SDS011;65567;55.684;37.570;2023-02-26T18:00:26;11.20;;;5.38;;
70216;SDS011;65567;55.684;37.570;2023-02-26T18:02:52;6.82;;;4.65;;
70216;SDS011;65567;55.684;37.570;2023-02-26T18:05:18;5.47;;;2.67;;
70216;SDS011;65567;55.684;37.570;2023-02-26T18:07:45;6.05;;;2.95;;
70216;SDS011;65567;55.684;37.570;2023-02-26T18:10:17;6.07;;;3.47;;
70216;SDS011;65567;55.684;37.570;2023-02-26T18:12:45;8.57;;;4.22;;
70216;SDS011;65567;55.684;37.570;2023-02-26T18:15:11;7.47;;;3.75;;
70216;SDS011;65567;55.684;37.570;2023-02-26T18:17:38;7.70;;;4.13;;
70216;SDS011;65567;55.684;37.570;2023-02-26T18:20:04;7.93;;;4.50;;
70216;SDS011;65567;55.684;37.570;2023-02-26T18:22:31;7.65;;;4.60;;
70216;SDS011;65567;55.684;37.570;2023-02-26T18:24:58;7.97;;;4.80;;
70216;SDS011;65567;55.684;37.570;2023-02-26T18:27:24;6.55;;;3.78;;
70216;SDS011;65567;55.684;37.570;2023-02-26T18:29:51;6.03;;;3.05;;
70216;SDS011;65567;55.684;37.570;2023-02-26T18:32:19;6.75;;;4.03;;
70216;SDS011;65567;55.684;37.570;2023-02-26T18:34:47;6.85;;;3.22;;
70216;SDS011;65567;55.684;37.570;2023-02-26T18:37:19;4.90;;;2.83;;
70216;SDS011;65567;55.684;37.570;2023-02-26T18:39:46;6.20;;;3.53;;
70216;SDS011;65567;55.684;37.570;2023-02-26T18:42:19;7.47;;;3.80;;
70216;SDS011;65567;55.684;37.570;2023-02-26T18:44:48;7.63;;;4.55;;
70216;SDS011;65567;55.684;37.570;2023-02-26T18:47:15;7.63;;;4.22;;
70216;SDS011;65567;55.684;37.570;2023-02-26T18:49:43;6.25;;;2.90;;
70216;SDS011;65567;55.684;37.570;2023-02-26T18:52:10;5.80;;;3.50;;
70216;SDS011;65567;55.684;37.570;2023-02-26T18:54:36;6.60;;;4.00;;
70216;SDS011;65567;55.684;37.570;2023-02-26T18:57:04;5.95;;;3.38;;
70216;SDS011;65567;55.684;37.570;2023-02-26T18:59:31;6.75;;;3.63;;
70216;SDS011;65567;55.684;37.570;2023-02-26T19:02:01;7.18;;;3.75;;
70216;SDS011;65567;55.684;37.570;2023-02-26T19:04:29;3.80;;;2.25;;
70216;SDS011;65567;55.684;37.570;2023-02-26T19:06:55;7.15;;;3.88;;
70216;SDS011;65567;55.684;37.570;2023-02-26T19:09:22;5.97;;;2.60;;
70216;SDS011;65567;55.684;37.570;2023-02-26T19:11:48;5.10;;;3.08;;
70216;SDS011;65567;55.684;37.570;2023-02-26T19:14:14;5.28;;;2.63;;
70216;SDS011;65567;55.684;37.570;2023-02-26T19:16:40;4.75;;;2.80;;
70216;SDS011;65567;55.684;37.570;2023-02-26T19:19:08;3.75;;;1.95;;
70216;SDS011;65567;55.684;37.570;2023-02-26T19:21:35;2.95;;;1.90;;
70216;SDS011;65567;55.684;37.570;2023-02-26T19:24:05;5.63;;;3.05;;
70216;SDS011;65567;55.684;37.570;2023-02-26T19:26:32;4.13;;;2.65;;
70216;SDS011;65567;55.684;37.570;2023-02-26T19:29:00;4.72;;;2.92;;
70216;SDS011;65567;55.684;37.570;2023-02-26T19:31:27;6.88;;;3.65;;
70216;SDS011;65567;55.684;37.570;2023-02-26T19:33:53;5.68;;;2.83;;
70216;SDS011;65567;55.684;37.570;2023-02-26T19:36:19;4.10;;;1.80;;
70216;SDS011;65567;55.684;37.570;2023-02-26T19:38:46;5.90;;;2.70;;
70216;SDS011;65567;55.684;37.570;2023-02-26T19:41:14;5.10;;;2.67;;
70216;SDS011;65567;55.684;37.570;2023-02-26T19:43:45;3.97;;;1.98;;
70216;SDS011;65567;55.684;37.570;2023-02-26T19:46:12;5.63;;;3.17;;
70216;SDS011;65567;55.684;37.570;2023-02-26T19:48:41;7.10;;;3.97;;
70216;SDS011;65567;55.684;37.570;2023-02-26T19:51:07;4.45;;;2.63;;